Terminal Aerodrome Forecast
Issued by NWS

Current Version | Previous Version | Text Only | Print | Product List | Glossary On
Versions: 1 2 3 4 5 6 7 8 9 10 11 12 13 14 15 16 17
765
FTUS46 KSTO 220759 AAC
TAFSCK
TAF AMD
KSCK 220759Z 2208/2306 VRB03KT 1/4SM FG VV003
     FM222000 VRB03KT 1 1/2SM BR SCT250
     FM222200 VRB03KT 4SM HZ BKN250=

USA.gov is the U.S. government's official web portal to all federal, state and local government web resources and services.